Varva — A8UP7 — position and weather

sailwx.info

Track history (hours):
 
Tides and Currents Weather Stations Pressure Air Temp Water Temp Dewpoint Dewpoint Depression Visibility Wind Speed Wind Dir Waves Ship Positions

Varva

Last reported at 2014-Sep-18 11:27 UTC. Time now 2014-Sep-18 11:42 UTC.
Position N 54°09' E 012°07'.

Length 224 m; draft 9.2 m.

Type: Cargo ship. MMSI: 636014536.

Date/timePositionNaut miles runAvg speedWind from/ knotsBaromVisibWave heightAir tempDewpointWater temp
2014-Sep-18 11:27N 54°09' E 012°07'0 0.0
2014-Sep-18 10:27N 54°09' E 012°07'0 0.0
2014-Sep-18 09:27N 54°09' E 012°07'0 0.0
2014-Sep-18 07:33N 54°09' E 012°07'0 0.0
2014-Sep-18 06:27N 54°09' E 012°07'0 0.0
2014-Sep-18 05:27N 54°09' E 012°07'0 0.0
2014-Sep-18 04:30N 54°09' E 012°07'0 0.0
2014-Sep-18 03:30N 54°09' E 012°07'0 0.0
2014-Sep-18 02:33N 54°09' E 012°07'0 0.0
2014-Sep-18 01:33N 54°09' E 012°07'0 0.0
2014-Sep-18 00:33N 54°09' E 012°07'0 0.0
2014-Sep-17 23:33N 54°09' E 012°07'6 5.9
2014-Sep-17 22:33N 54°14' E 012°03'5 4.8
2014-Sep-17 21:33N 54°19' E 012°03'8 8.0
2014-Sep-17 20:33N 54°26' E 012°10'1010.0
2014-Sep-17 19:33N 54°36' E 012°16'1110.8
2014-Sep-17 18:33N 54°43' E 012°30'1111.0
2014-Sep-17 17:31N 54°48' E 012°47'3612.1
2014-Sep-17 14:33N 55°01' E 013°45'1111.3
2014-Sep-17 13:33N 55°05' E 014°04'1211.9
2014-Sep-17 12:33N 55°14' E 014°17'1312.5
2014-Sep-17 11:33N 55°24' E 014°31'1212.2
2014-Sep-17 10:33N 55°30' E 014°48'1212.2
2014-Sep-17 09:32N 55°36' E 015°08'1212.0
2014-Sep-17 08:33N 55°40' E 015°27'1212.0
2014-Sep-17 07:33N 55°43' E 015°48'1212.1
2014-Sep-17 06:33N 55°46' E 016°09'1312.2
2014-Sep-17 05:27N 55°49' E 016°32'1112.0
2014-Sep-17 04:30N 55°49' E 016°52'5212.1
2014-Sep-17 00:13N 55°47' E 018°24'1112.3
2014-Sep-16 23:20N 55°47' E 018°43'1412.3
2014-Sep-16 22:14N 55°46' E 019°08'69 5.5
2014-Sep-16 09:33N 55°39' E 021°10'0 0.0
2014-Sep-14 07:29N 55°39' E 021°10'0 0.0
2014-Sep-14 06:32N 55°39' E 021°10'0 0.0
2014-Sep-14 05:29N 55°39' E 021°10'0 0.0
2014-Sep-14 04:32N 55°39' E 021°10'0 0.0
2014-Sep-14 03:32N 55°39' E 021°10'0 0.0
2014-Sep-14 02:32N 55°39' E 021°10'0 0.0
2014-Sep-14 01:32N 55°39' E 021°10'0 0.0
2014-Sep-13 21:32N 55°39' E 021°10'0 0.0
2014-Sep-13 08:10N 55°39' E 021°10'0 0.0
2014-Sep-13 07:28N 55°39' E 021°10'0 0.0
2014-Sep-13 06:31N 55°39' E 021°10'0 0.0
2014-Sep-13 05:07N 55°39' E 021°10'0 0.0
2014-Sep-13 04:28N 55°39' E 021°10'0 0.0
2014-Sep-13 03:31N 55°39' E 021°10'  
2014-Sep-10 10:30N 55°38' E 015°37'1112.0
2014-Sep-10 09:33N 55°34' E 015°19'1212.0
2014-Sep-10 08:33N 55°29' E 014°59'1212.1
2014-Sep-10 07:33N 55°24' E 014°40'1211.9
2014-Sep-10 06:33N 55°14' E 014°27'1110.5
2014-Sep-10 05:33N 55°10' E 014°10'1212.3
2014-Sep-10 04:33N 55°11' E 013°49'1212.0
2014-Sep-10 03:33N 55°12' E 013°28'1212.1
2014-Sep-10 02:33N 55°13' E 013°07'1212.2
2014-Sep-10 01:33N 55°16' E 012°46'10 9.6
2014-Sep-10 00:33N 55°25' E 012°40'1010.1
2014-Sep-09 23:33N 55°35' E 012°42'1110.7
2014-Sep-09 22:33N 55°46' E 012°41'1211.9
2014-Sep-09 21:33N 55°57' E 012°38'1111.0
2014-Sep-09 20:33N 56°07' E 012°30'6 6.4
2014-Sep-09 19:33N 56°11' E 012°21'1110.7
2014-Sep-09 18:33N 56°17' E 012°05'1212.2
2014-Sep-09 17:33N 56°29' E 011°59'1312.8
2014-Sep-09 16:33N 56°41' E 011°53'1312.7
2014-Sep-09 15:32N 56°53' E 011°43'5 5.1
2014-Sep-09 14:33N 56°58' E 011°40'1211.9
2014-Sep-09 13:33N 57°09' E 011°36'1211.9
2014-Sep-09 12:33N 57°20' E 011°29'1211.6
2014-Sep-09 11:33N 57°31' E 011°18'1211.7
2014-Sep-09 10:33N 57°40' E 011°06'1312.7
2014-Sep-09 09:33N 57°50' E 010°52'1111.1
2014-Sep-09 08:33N 57°51' E 010°31'1312.7
2014-Sep-09 07:33N 57°49' E 010°08'  
Track history (hours):
 
Tides and Currents Weather Stations Pressure Air Temp Water Temp Dewpoint Dewpoint Depression Visibility Wind Speed Wind Dir Waves Ship Positions

Varva

Last reported at 2014-Sep-18 11:27 UTC. Time now 2014-Sep-18 11:42 UTC.
Position N 54°09' E 012°07'.

Length 224 m; draft 9.2 m.

Type: Cargo ship. MMSI: 636014536.

Date/timePositionNaut miles runAvg speedWind from/ knotsBaromVisibWave heightAir tempDewpointWater temp
2014-Sep-18 11:27N 54°09' E 012°07'0 0.0
2014-Sep-18 10:27N 54°09' E 012°07'0 0.0
2014-Sep-18 09:27N 54°09' E 012°07'0 0.0
2014-Sep-18 07:33N 54°09' E 012°07'0 0.0
2014-Sep-18 06:27N 54°09' E 012°07'0 0.0
2014-Sep-18 05:27N 54°09' E 012°07'0 0.0
2014-Sep-18 04:30N 54°09' E 012°07'0 0.0
2014-Sep-18 03:30N 54°09' E 012°07'0 0.0
2014-Sep-18 02:33N 54°09' E 012°07'0 0.0
2014-Sep-18 01:33N 54°09' E 012°07'0 0.0
2014-Sep-18 00:33N 54°09' E 012°07'0 0.0
2014-Sep-17 23:33N 54°09' E 012°07'6 5.9
2014-Sep-17 22:33N 54°14' E 012°03'5 4.8
2014-Sep-17 21:33N 54°19' E 012°03'8 8.0
2014-Sep-17 20:33N 54°26' E 012°10'1010.0
2014-Sep-17 19:33N 54°36' E 012°16'1110.8
2014-Sep-17 18:33N 54°43' E 012°30'1111.0
2014-Sep-17 17:31N 54°48' E 012°47'3612.1
2014-Sep-17 14:33N 55°01' E 013°45'1111.3
2014-Sep-17 13:33N 55°05' E 014°04'1211.9
2014-Sep-17 12:33N 55°14' E 014°17'1312.5
2014-Sep-17 11:33N 55°24' E 014°31'1212.2
2014-Sep-17 10:33N 55°30' E 014°48'1212.2
2014-Sep-17 09:32N 55°36' E 015°08'1212.0
2014-Sep-17 08:33N 55°40' E 015°27'1212.0
2014-Sep-17 07:33N 55°43' E 015°48'1212.1
2014-Sep-17 06:33N 55°46' E 016°09'1312.2
2014-Sep-17 05:27N 55°49' E 016°32'1112.0
2014-Sep-17 04:30N 55°49' E 016°52'5212.1
2014-Sep-17 00:13N 55°47' E 018°24'1112.3
2014-Sep-16 23:20N 55°47' E 018°43'1412.3
2014-Sep-16 22:14N 55°46' E 019°08'69 5.5
2014-Sep-16 09:33N 55°39' E 021°10'0 0.0
2014-Sep-14 07:29N 55°39' E 021°10'0 0.0
2014-Sep-14 06:32N 55°39' E 021°10'0 0.0
2014-Sep-14 05:29N 55°39' E 021°10'0 0.0
2014-Sep-14 04:32N 55°39' E 021°10'0 0.0
2014-Sep-14 03:32N 55°39' E 021°10'0 0.0
2014-Sep-14 02:32N 55°39' E 021°10'0 0.0
2014-Sep-14 01:32N 55°39' E 021°10'0 0.0
2014-Sep-13 21:32N 55°39' E 021°10'0 0.0
2014-Sep-13 08:10N 55°39' E 021°10'0 0.0
2014-Sep-13 07:28N 55°39' E 021°10'0 0.0
2014-Sep-13 06:31N 55°39' E 021°10'0 0.0
2014-Sep-13 05:07N 55°39' E 021°10'0 0.0
2014-Sep-13 04:28N 55°39' E 021°10'0 0.0
2014-Sep-13 03:31N 55°39' E 021°10'  
2014-Sep-10 10:30N 55°38' E 015°37'1112.0
2014-Sep-10 09:33N 55°34' E 015°19'1212.0
2014-Sep-10 08:33N 55°29' E 014°59'1212.1
2014-Sep-10 07:33N 55°24' E 014°40'1211.9
2014-Sep-10 06:33N 55°14' E 014°27'1110.5
2014-Sep-10 05:33N 55°10' E 014°10'1212.3
2014-Sep-10 04:33N 55°11' E 013°49'1212.0
2014-Sep-10 03:33N 55°12' E 013°28'1212.1
2014-Sep-10 02:33N 55°13' E 013°07'1212.2
2014-Sep-10 01:33N 55°16' E 012°46'10 9.6
2014-Sep-10 00:33N 55°25' E 012°40'1010.1
2014-Sep-09 23:33N 55°35' E 012°42'1110.7
2014-Sep-09 22:33N 55°46' E 012°41'1211.9
2014-Sep-09 21:33N 55°57' E 012°38'1111.0
2014-Sep-09 20:33N 56°07' E 012°30'6 6.4
2014-Sep-09 19:33N 56°11' E 012°21'1110.7
2014-Sep-09 18:33N 56°17' E 012°05'1212.2
2014-Sep-09 17:33N 56°29' E 011°59'1312.8
2014-Sep-09 16:33N 56°41' E 011°53'1312.7
2014-Sep-09 15:32N 56°53' E 011°43'5 5.1
2014-Sep-09 14:33N 56°58' E 011°40'1211.9
2014-Sep-09 13:33N 57°09' E 011°36'1211.9
2014-Sep-09 12:33N 57°20' E 011°29'1211.6
2014-Sep-09 11:33N 57°31' E 011°18'1211.7
2014-Sep-09 10:33N 57°40' E 011°06'1312.7
2014-Sep-09 09:33N 57°50' E 010°52'1111.1
2014-Sep-09 08:33N 57°51' E 010°31'1312.7
2014-Sep-09 07:33N 57°49' E 010°08'  

Dump ship's entire track history